createdAt,value
2023-04-26T00:00:19.811Z,86.69
2023-04-26T00:01:22.897Z,87.18
2023-04-26T00:02:24.980Z,87.50
2023-04-26T00:03:47.115Z,87.59
2023-04-26T00:04:54.504Z,87.83
2023-04-26T00:05:56.814Z,88.74
2023-04-26T00:06:59.921Z,89.11
2023-04-26T00:08:01.789Z,88.62
2023-04-26T00:09:04.134Z,88.35
2023-04-26T00:10:08.860Z,88.37
2023-04-26T00:11:10.876Z,88.09
2023-04-26T00:12:12.876Z,87.65
2023-04-26T00:13:14.876Z,86.89
2023-04-26T00:14:18.036Z,86.50
2023-04-26T00:15:20.727Z,85.99
2023-04-26T00:16:22.887Z,85.51
2023-04-26T00:17:24.901Z,85.52
2023-04-26T00:18:26.911Z,85.49
2023-04-26T00:19:28.886Z,85.60
2023-04-26T00:20:30.953Z,85.69
2023-04-26T00:21:34.000Z,85.75
2023-04-26T00:22:35.975Z,85.74
2023-04-26T00:23:37.954Z,85.66
2023-04-26T00:24:39.855Z,85.61
2023-04-26T00:25:41.728Z,86.12
2023-04-26T00:26:43.836Z,86.21
2023-04-26T00:27:46.348Z,86.03
2023-04-26T00:28:49.499Z,86.78
2023-04-26T00:29:51.461Z,87.21
2023-04-26T00:30:53.440Z,87.16
2023-04-26T00:31:57.641Z,86.98
2023-04-26T00:33:00.561Z,86.95
2023-04-26T00:34:02.629Z,86.97
2023-04-26T00:35:06.580Z,87.60
2023-04-26T00:36:09.558Z,87.81
2023-04-26T00:37:12.545Z,87.35
2023-04-26T00:38:14.428Z,87.23
2023-04-26T00:39:16.290Z,87.08
2023-04-26T00:40:18.627Z,86.84
2023-04-26T00:41:20.619Z,86.99
2023-04-26T00:42:23.729Z,87.05
2023-04-26T00:43:25.767Z,87.00
2023-04-26T00:44:28.970Z,87.16
2023-04-26T00:45:31.011Z,87.55
2023-04-26T00:46:33.684Z,87.68
2023-04-26T00:47:35.959Z,87.54
2023-04-26T00:48:38.544Z,87.54
2023-04-26T00:49:41.240Z,87.45
2023-04-26T00:50:44.024Z,87.45
2023-04-26T00:51:47.177Z,87.49
2023-04-26T00:52:50.275Z,87.25
2023-04-26T00:53:53.489Z,86.86
2023-04-26T00:54:56.681Z,87.21
2023-04-26T00:56:01.211Z,87.38
2023-04-26T00:57:03.608Z,87.59
2023-04-26T00:58:07.034Z,87.61
2023-04-26T00:59:08.895Z,88.18
2023-04-26T01:00:11.987Z,88.27
2023-04-26T01:01:13.874Z,88.24
2023-04-26T01:02:15.927Z,88.35
2023-04-26T01:03:18.970Z,88.63
2023-04-26T01:04:21.348Z,88.58
2023-04-26T01:05:23.660Z,88.42
2023-04-26T01:06:32.201Z,88.24
2023-04-26T01:08:46.727Z,87.35
2023-04-26T01:09:49.118Z,87.35
2023-04-26T01:10:52.414Z,87.41
2023-04-26T01:11:55.364Z,87.75
2023-04-26T01:12:58.029Z,88.16
2023-04-26T01:14:01.613Z,88.14
2023-04-26T01:15:05.028Z,88.29
2023-04-26T01:16:07.815Z,88.49
2023-04-26T01:17:09.746Z,88.46
2023-04-26T01:18:12.053Z,88.68
2023-04-26T01:19:14.455Z,89.12
2023-04-26T01:20:16.926Z,89.01
2023-04-26T01:21:22.664Z,89.18
2023-04-26T01:22:24.771Z,89.56
2023-04-26T01:23:26.637Z,90.07
2023-04-26T01:24:28.527Z,90.29
2023-04-26T01:25:30.550Z,90.65
2023-04-26T01:26:32.511Z,91.16
2023-04-26T01:27:34.668Z,90.49
2023-04-26T01:28:36.578Z,90.22
2023-04-26T01:29:38.457Z,90.15
2023-04-26T01:30:40.408Z,89.93
2023-04-26T01:31:44.064Z,90.17
2023-04-26T01:32:46.049Z,90.33
2023-04-26T01:33:48.290Z,90.61
2023-04-26T01:34:50.260Z,90.15
2023-04-26T01:35:52.109Z,89.96
2023-04-26T01:36:54.069Z,89.47
2023-04-26T01:37:57.102Z,88.94
2023-04-26T01:38:58.976Z,88.49
2023-04-26T01:40:01.131Z,88.21
2023-04-26T01:41:03.398Z,88.28
2023-04-26T01:42:05.324Z,88.03
2023-04-26T01:43:07.346Z,87.97
2023-04-26T01:44:09.210Z,88.35
2023-04-26T01:46:23.072Z,89.09
2023-04-26T01:47:25.101Z,89.23
2023-04-26T01:48:27.071Z,89.25
2023-04-26T01:49:29.212Z,89.38
2023-04-26T01:50:31.181Z,89.38
2023-04-26T01:51:33.061Z,89.50
2023-04-26T01:52:35.018Z,89.31
2023-04-26T01:53:36.898Z,89.21
2023-04-26T01:54:38.766Z,89.09
2023-04-26T01:55:40.626Z,88.92
2023-04-26T01:56:42.586Z,88.92
2023-04-26T01:57:44.478Z,89.04
2023-04-26T01:58:46.320Z,89.41
2023-04-26T01:59:48.200Z,89.58
2023-04-26T02:00:50.368Z,90.40
2023-04-26T02:01:52.314Z,90.93
2023-04-26T02:02:55.330Z,91.08
2023-04-26T02:03:57.335Z,91.08
2023-04-26T02:05:00.482Z,91.12
2023-04-26T02:06:03.442Z,91.06
2023-04-26T02:07:05.308Z,90.68
2023-04-26T02:08:07.266Z,91.03
2023-04-26T02:09:09.122Z,91.60
2023-04-26T02:10:11.487Z,91.81
2023-04-26T02:11:13.433Z,91.25
2023-04-26T02:12:15.320Z,91.45
2023-04-26T02:13:17.298Z,91.58
2023-04-26T02:14:19.139Z,91.79
2023-04-26T02:15:21.021Z,92.23
2023-04-26T02:16:23.157Z,92.21
2023-04-26T02:17:26.225Z,91.81
2023-04-26T02:18:28.576Z,91.74
2023-04-26T02:19:30.477Z,91.93
2023-04-26T02:20:33.038Z,91.84
2023-04-26T02:21:53.457Z,91.69
2023-04-26T02:22:55.504Z,91.34
2023-04-26T02:23:57.405Z,91.23
2023-04-26T02:24:59.261Z,90.93
2023-04-26T02:26:01.220Z,90.93
2023-04-26T02:27:03.344Z,91.27
2023-04-26T02:28:05.586Z,90.98
2023-04-26T02:29:07.409Z,91.38
2023-04-26T02:30:10.600Z,91.36
2023-04-26T02:31:12.978Z,91.43
2023-04-26T02:32:16.102Z,91.92
2023-04-26T02:33:17.937Z,92.50
2023-04-26T02:34:19.842Z,92.63
2023-04-26T02:35:22.376Z,92.86
2023-04-26T02:36:26.039Z,92.96
2023-04-26T02:37:28.177Z,93.52
2023-04-26T02:38:30.035Z,93.47
2023-04-26T02:39:32.015Z,93.46
2023-04-26T02:40:34.092Z,93.29
2023-04-26T02:41:36.060Z,93.19
2023-04-26T02:42:38.022Z,93.34
2023-04-26T02:43:39.891Z,92.84
2023-04-26T02:44:42.182Z,92.60
2023-04-26T02:45:44.026Z,92.62
2023-04-26T02:46:46.009Z,92.64
2023-04-26T02:47:49.847Z,92.45
2023-04-26T02:48:52.150Z,92.02
2023-04-26T02:49:54.200Z,91.66
2023-04-26T02:50:56.275Z,91.58
2023-04-26T02:51:58.228Z,91.77
2023-04-26T02:53:00.146Z,92.05
2023-04-26T02:54:02.045Z,92.05
2023-04-26T02:55:05.469Z,91.92
2023-04-26T02:56:07.690Z,91.81
2023-04-26T02:57:09.551Z,91.27
2023-04-26T02:58:11.678Z,91.04
2023-04-26T02:59:13.572Z,90.90
2023-04-26T03:00:16.012Z,91.11
2023-04-26T03:01:18.236Z,91.55
2023-04-26T03:02:21.372Z,92.44
2023-04-26T03:03:25.189Z,92.04
2023-04-26T03:04:27.321Z,91.91
2023-04-26T03:05:29.212Z,92.50
2023-04-26T03:06:31.148Z,92.66
2023-04-26T03:07:33.185Z,92.51
2023-04-26T03:08:35.051Z,92.33
2023-04-26T03:09:37.021Z,92.46
2023-04-26T03:10:39.060Z,92.59
2023-04-26T03:11:40.892Z,92.29
2023-04-26T03:12:42.797Z,92.10
2023-04-26T03:13:44.667Z,92.36
2023-04-26T03:14:46.523Z,92.04
2023-04-26T03:15:48.427Z,92.05
2023-04-26T03:16:50.510Z,92.63
2023-04-26T03:17:52.480Z,92.51
2023-04-26T03:18:54.515Z,92.18
2023-04-26T03:19:56.820Z,92.19
2023-04-26T03:20:58.761Z,92.92
2023-04-26T03:22:00.733Z,93.61
2023-04-26T03:23:02.588Z,94.70
2023-04-26T03:24:05.517Z,94.82
2023-04-26T03:25:08.291Z,94.75
2023-04-26T03:26:11.691Z,94.96
2023-04-26T03:27:14.486Z,94.73
2023-04-26T03:28:17.045Z,95.19
2023-04-26T03:29:18.916Z,95.20
2023-04-26T03:30:21.732Z,95.41
2023-04-26T03:31:23.965Z,95.38
2023-04-26T03:32:26.123Z,95.33
2023-04-26T03:33:28.106Z,95.51
2023-04-26T03:34:30.046Z,95.45
2023-04-26T03:35:32.065Z,95.87
2023-04-26T03:36:34.150Z,96.33
2023-04-26T03:37:36.294Z,96.60
2023-04-26T03:38:38.169Z,96.36
2023-04-26T03:39:40.584Z,96.32
2023-04-26T03:40:42.726Z,96.45
2023-04-26T03:41:44.723Z,96.10
2023-04-26T03:42:46.668Z,95.50
2023-04-26T03:43:49.168Z,95.22
2023-04-26T03:44:51.949Z,95.13
2023-04-26T03:45:55.022Z,95.02
2023-04-26T03:46:57.569Z,94.92
2023-04-26T03:47:59.467Z,94.82
2023-04-26T03:49:01.558Z,94.92
2023-04-26T03:50:04.745Z,94.87
2023-04-26T03:51:06.726Z,94.88
2023-04-26T03:52:08.609Z,95.10
2023-04-26T03:53:11.490Z,95.77
2023-04-26T03:54:13.717Z,95.93
2023-04-26T03:55:15.953Z,96.12
2023-04-26T03:56:18.220Z,96.04
2023-04-26T03:57:20.090Z,96.10
2023-04-26T03:58:22.169Z,96.24
2023-04-26T03:59:24.128Z,96.05
2023-04-26T04:00:26.127Z,95.91
2023-04-26T04:01:28.084Z,95.94
2023-04-26T04:02:30.559Z,95.83
2023-04-26T04:03:33.006Z,95.81
2023-04-26T04:04:35.335Z,95.85
2023-04-26T04:05:37.469Z,95.55
2023-04-26T04:06:39.663Z,95.26
2023-04-26T04:07:41.855Z,95.13
2023-04-26T04:08:43.763Z,95.07
2023-04-26T04:09:45.632Z,95.08
2023-04-26T04:10:47.692Z,95.33
2023-04-26T04:11:49.603Z,95.64
2023-04-26T04:12:51.570Z,96.07
2023-04-26T04:13:53.464Z,96.16
2023-04-26T04:14:55.519Z,96.46
2023-04-26T04:15:57.453Z,96.42
2023-04-26T04:17:00.507Z,97.70
2023-04-26T04:18:02.652Z,97.70
2023-04-26T04:19:04.844Z,97.68
2023-04-26T04:20:08.160Z,97.93
2023-04-26T04:21:10.148Z,97.91
2023-04-26T04:22:12.117Z,98.33
2023-04-26T04:23:13.983Z,98.28
2023-04-26T04:24:15.843Z,98.17
2023-04-26T04:25:18.012Z,98.16
2023-04-26T04:26:20.312Z,98.55
2023-04-26T04:27:22.265Z,98.31
2023-04-26T04:28:26.515Z,98.20
2023-04-26T04:29:29.003Z,98.17
2023-04-26T04:30:31.133Z,97.94
2023-04-26T04:31:33.501Z,97.79
2023-04-26T04:32:36.032Z,97.41
2023-04-26T04:33:38.236Z,97.29
2023-04-26T04:34:40.249Z,97.30
2023-04-26T04:35:42.109Z,97.48
2023-04-26T04:36:44.089Z,97.32
2023-04-26T04:37:46.075Z,97.24
2023-04-26T04:38:47.923Z,96.85
2023-04-26T04:39:49.799Z,97.02
2023-04-26T04:40:51.747Z,97.06
2023-04-26T04:41:53.599Z,96.77
2023-04-26T04:42:56.656Z,96.81
2023-04-26T04:43:58.795Z,97.05
2023-04-26T04:45:01.588Z,97.12
2023-04-26T04:46:04.023Z,96.83
2023-04-26T04:47:06.150Z,96.57
2023-04-26T04:48:08.469Z,96.22
2023-04-26T04:49:11.626Z,96.43
2023-04-26T04:50:14.546Z,96.18
2023-04-26T04:51:16.479Z,96.04
2023-04-26T04:52:19.079Z,96.03
2023-04-26T04:53:21.243Z,96.15
2023-04-26T04:54:23.131Z,95.74
2023-04-26T04:55:25.057Z,95.68
2023-04-26T04:56:27.064Z,95.52
2023-04-26T04:57:30.487Z,95.48
2023-04-26T04:58:32.353Z,95.16
2023-04-26T04:59:34.453Z,94.98
2023-04-26T05:00:36.503Z,94.63
2023-04-26T05:01:38.572Z,94.19
2023-04-26T05:02:41.469Z,93.85
2023-04-26T05:03:43.795Z,93.31
2023-04-26T05:04:46.098Z,93.18
2023-04-26T05:05:48.190Z,92.97
2023-04-26T05:06:50.247Z,92.76
2023-04-26T05:07:52.123Z,92.37
2023-04-26T05:08:55.523Z,92.37
2023-04-26T05:09:57.504Z,92.39
2023-04-26T05:10:59.685Z,92.36
2023-04-26T05:12:01.841Z,92.45
2023-04-26T05:13:04.091Z,92.79
2023-04-26T05:14:06.046Z,92.10
2023-04-26T05:15:08.670Z,91.55
2023-04-26T05:17:12.679Z,91.69
2023-04-26T05:18:14.758Z,91.69
2023-04-26T05:19:16.700Z,91.60
2023-04-26T05:20:20.870Z,91.45
2023-04-26T05:21:22.866Z,91.08
2023-04-26T05:22:26.754Z,91.08
2023-04-26T05:23:28.752Z,91.00
2023-04-26T05:24:30.595Z,91.45
2023-04-26T05:25:36.241Z,91.43
2023-04-26T05:26:38.646Z,91.28
2023-04-26T05:27:40.550Z,91.99
2023-04-26T05:28:42.891Z,91.80
2023-04-26T05:29:44.853Z,91.29
2023-04-26T05:30:46.934Z,91.48
2023-04-26T05:31:51.226Z,91.80
2023-04-26T05:32:53.335Z,91.86
2023-04-26T05:33:55.278Z,91.96
2023-04-26T05:34:57.914Z,91.50
2023-04-26T05:35:59.899Z,91.31
2023-04-26T05:37:01.919Z,91.42
2023-04-26T05:38:03.993Z,91.45
2023-04-26T05:39:05.965Z,91.29
2023-04-26T05:40:09.589Z,91.22
2023-04-26T05:41:11.489Z,90.94
2023-04-26T05:42:13.533Z,90.99
2023-04-26T05:43:16.429Z,90.61
2023-04-26T05:44:18.325Z,90.61
2023-04-26T05:45:20.710Z,90.52
2023-04-26T05:46:23.788Z,91.14
2023-04-26T05:47:25.838Z,91.07
2023-04-26T05:48:27.912Z,90.75
2023-04-26T05:49:29.781Z,90.58
2023-04-26T05:50:32.114Z,90.39
2023-04-26T05:51:34.110Z,90.12
2023-04-26T05:52:36.003Z,89.95
2023-04-26T05:53:37.952Z,89.78
2023-04-26T05:54:39.824Z,89.91
2023-04-26T05:55:42.703Z,89.54
2023-04-26T05:56:44.676Z,88.98
2023-04-26T05:57:46.864Z,88.29
2023-04-26T05:58:49.153Z,87.89
2023-04-26T05:59:51.037Z,87.77
2023-04-26T06:00:53.060Z,87.59
2023-04-26T06:01:54.962Z,87.46
2023-04-26T06:02:57.031Z,87.43
2023-04-26T06:04:01.022Z,87.54
2023-04-26T06:05:04.181Z,87.33
2023-04-26T06:06:06.711Z,86.78
2023-04-26T06:07:08.684Z,86.81
2023-04-26T06:08:10.656Z,87.32
2023-04-26T06:09:13.123Z,87.14
2023-04-26T06:10:17.715Z,86.64
2023-04-26T06:11:19.715Z,85.81
2023-04-26T06:12:21.687Z,84.11
2023-04-26T06:13:23.777Z,82.63
2023-04-26T06:14:30.378Z,81.50
2023-04-26T06:15:29.463Z,80.67
2023-04-26T06:16:31.465Z,80.07
2023-04-26T06:17:33.528Z,80.41
2023-04-26T06:18:35.489Z,79.71
2023-04-26T06:19:37.575Z,79.68
2023-04-26T06:20:40.703Z,79.59
2023-04-26T06:21:42.713Z,79.61
2023-04-26T06:22:44.708Z,78.70
2023-04-26T06:23:46.593Z,79.12
2023-04-26T06:24:48.570Z,78.80
2023-04-26T06:25:50.547Z,78.86
2023-04-26T06:26:52.777Z,78.48
2023-04-26T06:27:54.890Z,78.46
2023-04-26T06:28:57.431Z,78.22
2023-04-26T06:29:59.559Z,77.86
2023-04-26T06:31:01.755Z,78.30
2023-04-26T06:32:04.456Z,77.86
2023-04-26T06:33:06.398Z,77.63
2023-04-26T06:34:08.958Z,77.26
2023-04-26T06:35:10.850Z,76.49
2023-04-26T06:36:13.188Z,76.14
2023-04-26T06:37:16.258Z,76.68
2023-04-26T06:38:18.258Z,76.48
2023-04-26T06:39:20.194Z,76.63
2023-04-26T06:40:22.261Z,77.02
2023-04-26T06:41:24.227Z,77.54
2023-04-26T06:42:26.247Z,77.40
2023-04-26T06:43:28.102Z,77.10
2023-04-26T06:44:30.274Z,77.22
2023-04-26T06:45:32.808Z,76.28
2023-04-26T06:46:34.996Z,76.77
2023-04-26T06:47:36.984Z,77.01
2023-04-26T06:48:42.345Z,76.74
2023-04-26T06:49:44.392Z,77.08
2023-04-26T06:50:46.430Z,77.42
2023-04-26T06:51:51.103Z,76.88
2023-04-26T06:52:53.036Z,77.32
2023-04-26T06:53:56.613Z,77.38
2023-04-26T06:55:02.995Z,77.01
2023-04-26T06:56:05.786Z,77.51
2023-04-26T06:57:07.857Z,77.59
2023-04-26T06:58:10.869Z,76.92
2023-04-26T06:59:12.788Z,77.10
2023-04-26T07:00:17.982Z,77.03
2023-04-26T07:01:20.183Z,77.49
2023-04-26T07:02:22.817Z,77.56
2023-04-26T07:03:25.085Z,76.44
2023-04-26T07:04:27.584Z,76.14
2023-04-26T07:05:29.665Z,76.36
2023-04-26T07:06:32.097Z,76.39
2023-04-26T07:07:34.193Z,76.27
2023-04-26T07:08:36.174Z,76.13
2023-04-26T07:09:38.037Z,76.31
2023-04-26T07:10:41.071Z,76.15
2023-04-26T07:11:47.026Z,75.82
2023-04-26T07:12:49.706Z,75.30
2023-04-26T07:13:52.162Z,75.35
2023-04-26T07:14:54.530Z,75.29
2023-04-26T07:15:56.560Z,75.13
2023-04-26T07:16:58.693Z,74.42
2023-04-26T07:18:00.720Z,74.54
2023-04-26T07:19:02.717Z,74.40
2023-04-26T07:20:06.460Z,74.61
2023-04-26T07:21:09.993Z,74.68
2023-04-26T07:22:11.902Z,74.27
2023-04-26T07:23:13.782Z,73.67
2023-04-26T07:24:15.748Z,73.30
2023-04-26T07:25:18.146Z,73.25
2023-04-26T07:26:20.137Z,73.40
2023-04-26T07:27:22.634Z,73.05
2023-04-26T07:28:25.769Z,73.10
2023-04-26T07:29:27.694Z,71.58
2023-04-26T07:30:30.051Z,71.53
2023-04-26T07:31:31.911Z,71.41
2023-04-26T07:32:34.592Z,70.95
2023-04-26T07:33:36.652Z,70.51
2023-04-26T07:34:38.647Z,70.24
2023-04-26T07:35:42.087Z,70.59
2023-04-26T07:36:44.071Z,70.75
2023-04-26T07:37:46.063Z,70.50
2023-04-26T07:38:48.042Z,70.15
2023-04-26T07:39:49.938Z,69.34
2023-04-26T07:40:52.010Z,69.27
2023-04-26T07:41:54.751Z,69.00
2023-04-26T07:42:56.761Z,68.33
2023-04-26T07:43:58.727Z,67.92
2023-04-26T07:45:00.573Z,67.19
2023-04-26T07:46:02.676Z,66.81
2023-04-26T07:47:04.685Z,66.47
2023-04-26T07:48:07.323Z,66.68
2023-04-26T07:49:09.395Z,66.57
2023-04-26T07:50:12.025Z,66.72
2023-04-26T07:51:14.055Z,66.35
2023-04-26T07:52:15.926Z,66.60
2023-04-26T07:53:17.872Z,67.05
2023-04-26T07:54:19.762Z,67.86
2023-04-26T07:55:22.075Z,68.60
2023-04-26T07:56:24.102Z,68.53
2023-04-26T07:57:26.124Z,69.19
2023-04-26T07:58:28.148Z,69.04
2023-04-26T07:59:30.006Z,68.73
2023-04-26T08:00:32.071Z,68.55
2023-04-26T08:01:34.035Z,68.28
2023-04-26T08:02:44.487Z,67.88
2023-04-26T08:03:39.987Z,67.86
2023-04-26T08:04:48.316Z,67.19
2023-04-26T08:05:50.661Z,66.87
2023-04-26T08:06:52.800Z,66.33
2023-04-26T08:07:54.727Z,67.19
2023-04-26T08:08:56.576Z,67.55
2023-04-26T08:09:58.451Z,67.66
2023-04-26T08:11:00.885Z,67.11
2023-04-26T08:12:04.271Z,66.58
2023-04-26T08:13:06.181Z,66.54
2023-04-26T08:14:08.147Z,65.83
2023-04-26T08:15:11.292Z,65.36
2023-04-26T08:16:14.421Z,65.75
2023-04-26T08:17:17.005Z,64.82
2023-04-26T08:18:18.879Z,63.78
2023-04-26T08:19:20.734Z,64.24
2023-04-26T08:20:22.993Z,63.81
2023-04-26T08:21:24.998Z,64.39
2023-04-26T08:22:26.982Z,64.67
2023-04-26T08:23:30.698Z,65.12
2023-04-26T08:24:32.700Z,65.68
2023-04-26T08:25:34.559Z,66.05
2023-04-26T08:26:36.635Z,65.92
2023-04-26T08:27:38.636Z,65.53
2023-04-26T08:28:40.580Z,65.38
2023-04-26T08:29:42.751Z,65.22
2023-04-26T08:30:44.774Z,65.32
2023-04-26T08:31:46.719Z,65.59
2023-04-26T08:32:48.616Z,66.41
2023-04-26T08:33:51.159Z,66.78
2023-04-26T08:34:53.339Z,67.60
2023-04-26T08:35:55.206Z,68.13
2023-04-26T08:36:57.417Z,67.63
2023-04-26T08:37:59.365Z,67.51
2023-04-26T08:39:01.335Z,67.51
2023-04-26T08:41:19.153Z,66.86
2023-04-26T08:42:24.329Z,66.86
2023-04-26T08:43:27.424Z,67.44
2023-04-26T08:44:33.091Z,67.23
2023-04-26T08:45:37.696Z,67.35
2023-04-26T08:46:58.284Z,66.91
2023-04-26T08:48:11.056Z,67.16
2023-04-26T08:49:22.998Z,66.99
2023-04-26T08:50:25.052Z,67.17
2023-04-26T08:51:27.828Z,67.23
2023-04-26T08:52:31.692Z,67.45
2023-04-26T08:53:35.372Z,67.29
2023-04-26T08:54:41.591Z,67.21
2023-04-26T08:55:48.754Z,66.76
2023-04-26T08:56:53.651Z,67.02
2023-04-26T08:57:56.072Z,66.06
2023-04-26T08:59:01.776Z,65.93
2023-04-26T09:00:05.182Z,66.00
2023-04-26T09:01:09.193Z,66.77
2023-04-26T09:02:15.039Z,66.80
2023-04-26T09:03:17.229Z,67.56
2023-04-26T09:04:19.473Z,66.97
2023-04-26T09:05:22.305Z,66.83
2023-04-26T09:06:24.992Z,67.30
2023-04-26T09:07:42.374Z,67.34
2023-04-26T09:08:47.481Z,67.73
2023-04-26T09:09:50.014Z,67.63
2023-04-26T09:10:52.039Z,67.35
2023-04-26T09:11:57.352Z,67.26
2023-04-26T09:12:59.375Z,67.43
2023-04-26T09:14:01.362Z,66.62
2023-04-26T09:15:05.521Z,66.25
2023-04-26T09:16:08.149Z,66.33
2023-04-26T09:17:30.964Z,66.51
2023-04-26T09:18:33.341Z,66.63
2023-04-26T09:19:37.678Z,67.30
2023-04-26T09:20:39.852Z,66.74
2023-04-26T09:21:43.654Z,65.91
2023-04-26T09:22:45.546Z,66.10
2023-04-26T09:23:59.800Z,66.49
2023-04-26T09:25:06.313Z,66.75
2023-04-26T09:26:16.593Z,66.82
2023-04-26T09:27:19.891Z,66.58
2023-04-26T09:28:23.340Z,66.74
2023-04-26T09:29:25.294Z,66.89
2023-04-26T09:30:29.932Z,66.86
2023-04-26T09:31:38.946Z,67.62
2023-04-26T09:32:49.844Z,67.76
2023-04-26T09:33:59.302Z,68.48
2023-04-26T09:35:01.292Z,68.48
2023-04-26T09:36:12.452Z,68.37
2023-04-26T09:37:14.543Z,68.21
2023-04-26T09:38:18.793Z,68.46
2023-04-26T09:39:39.930Z,69.06
2023-04-26T09:40:44.777Z,69.07
2023-04-26T09:41:46.691Z,69.75
2023-04-26T09:43:04.274Z,70.11
2023-04-26T09:44:06.161Z,70.24
2023-04-26T09:45:09.420Z,71.13
2023-04-26T09:46:15.508Z,71.72
2023-04-26T09:47:21.264Z,71.92
2023-04-26T09:48:25.605Z,72.17
2023-04-26T09:49:30.416Z,72.86
2023-04-26T09:50:32.451Z,72.69
2023-04-26T09:51:34.396Z,73.00
2023-04-26T09:52:43.407Z,73.21
2023-04-26T09:53:47.083Z,73.02
2023-04-26T09:54:53.684Z,74.05
2023-04-26T09:55:57.175Z,74.02
2023-04-26T09:56:59.846Z,74.42
2023-04-26T09:58:10.177Z,74.14
2023-04-26T09:59:12.215Z,74.78
2023-04-26T10:00:15.596Z,75.14
2023-04-26T10:01:19.080Z,75.32
2023-04-26T10:02:23.556Z,75.54
2023-04-26T10:03:26.556Z,75.44
2023-04-26T10:04:31.218Z,75.82
2023-04-26T10:05:34.159Z,76.02
2023-04-26T10:06:36.291Z,76.29
2023-04-26T10:07:39.012Z,76.06
2023-04-26T10:08:41.240Z,76.17
2023-04-26T10:09:44.029Z,76.18
2023-04-26T10:10:47.249Z,76.39
2023-04-26T10:11:49.141Z,76.40
2023-04-26T10:12:51.101Z,76.24
2023-04-26T10:13:53.160Z,76.12
2023-04-26T10:14:56.030Z,76.21
2023-04-26T10:15:59.674Z,75.83
2023-04-26T10:17:04.637Z,75.62
2023-04-26T10:18:08.246Z,75.60
2023-04-26T10:19:11.515Z,75.76
2023-04-26T10:20:17.090Z,76.35
2023-04-26T10:22:54.991Z,76.63
2023-04-26T10:23:59.382Z,76.69
2023-04-26T10:25:01.966Z,76.38
2023-04-26T10:26:04.670Z,75.96
2023-04-26T10:27:06.652Z,76.29
2023-04-26T10:28:08.539Z,76.61
2023-04-26T10:29:10.522Z,75.28
2023-04-26T10:30:15.347Z,75.24
2023-04-26T10:31:17.315Z,74.55
2023-04-26T10:32:21.265Z,74.13
2023-04-26T10:33:24.760Z,73.46
2023-04-26T10:34:28.668Z,72.91
2023-04-26T10:35:30.571Z,72.25
2023-04-26T10:36:32.631Z,72.09
2023-04-26T10:37:34.644Z,71.61
2023-04-26T10:38:38.632Z,71.95
2023-04-26T10:39:42.530Z,71.78
2023-04-26T10:40:44.673Z,71.92
2023-04-26T10:41:46.732Z,71.21
2023-04-26T10:42:48.677Z,72.26
2023-04-26T10:43:50.680Z,72.85
2023-04-26T10:44:58.705Z,72.82
2023-04-26T10:46:17.316Z,73.06
2023-04-26T10:48:41.108Z,72.60
2023-04-26T10:49:46.478Z,72.72
2023-04-26T10:51:04.561Z,73.07
2023-04-26T10:52:12.577Z,72.91
2023-04-26T10:53:14.751Z,72.87
2023-04-26T10:54:16.888Z,73.31
2023-04-26T10:55:39.634Z,72.80
2023-04-26T10:56:48.532Z,73.00
2023-04-26T10:57:52.226Z,72.51
2023-04-26T11:00:23.538Z,71.60
2023-04-26T11:01:25.569Z,72.14
2023-04-26T11:03:00.335Z,72.71
2023-04-26T11:04:10.456Z,72.34
2023-04-26T11:05:40.877Z,72.21
2023-04-26T11:06:53.839Z,72.80
2023-04-26T11:08:20.332Z,72.81
2023-04-26T11:09:38.714Z,73.19
2023-04-26T11:10:41.984Z,73.68
2023-04-26T11:11:53.120Z,73.80
2023-04-26T11:13:02.386Z,73.84
2023-04-26T11:14:05.622Z,73.87
2023-04-26T11:15:10.352Z,73.98
2023-04-26T11:16:15.074Z,74.01
2023-04-26T11:17:17.883Z,74.60
2023-04-26T11:18:20.845Z,74.85
2023-04-26T11:19:22.803Z,74.94
2023-04-26T11:20:29.501Z,74.16
2023-04-26T11:21:31.414Z,73.97
2023-04-26T11:22:33.354Z,73.87
2023-04-26T11:23:36.018Z,74.07
2023-04-26T11:24:38.318Z,74.29
2023-04-26T11:25:40.183Z,75.61
2023-04-26T11:26:46.175Z,75.71
2023-04-26T11:27:48.087Z,74.71
2023-04-26T11:28:50.499Z,73.90
2023-04-26T11:29:54.095Z,73.90
2023-04-26T11:30:56.749Z,73.80
2023-04-26T11:31:58.874Z,72.93
2023-04-26T11:33:02.717Z,72.89
2023-04-26T11:34:04.948Z,73.25
2023-04-26T11:35:08.178Z,72.46
2023-04-26T11:36:11.456Z,72.46
2023-04-26T11:37:16.504Z,72.97
2023-04-26T11:38:25.257Z,72.85
2023-04-26T11:39:28.067Z,72.79
2023-04-26T11:40:31.275Z,73.06
2023-04-26T11:41:33.338Z,72.67
2023-04-26T11:42:35.295Z,72.98
2023-04-26T11:43:38.669Z,73.43
2023-04-26T11:44:40.883Z,73.66
2023-04-26T11:45:42.875Z,73.93
2023-04-26T11:46:49.125Z,74.11
2023-04-26T11:47:51.864Z,75.37
2023-04-26T11:48:54.901Z,75.34
2023-04-26T11:49:57.650Z,75.41
2023-04-26T11:51:02.211Z,76.03
2023-04-26T11:52:05.872Z,76.03
2023-04-26T11:53:08.162Z,76.14
2023-04-26T11:54:10.405Z,77.02
2023-04-26T11:55:12.382Z,77.34
2023-04-26T11:56:16.932Z,77.19
2023-04-26T11:57:19.711Z,77.76
2023-04-26T11:58:21.708Z,78.62
2023-04-26T11:59:26.346Z,79.62
2023-04-26T12:00:28.753Z,80.22
2023-04-26T12:01:30.633Z,79.84
2023-04-26T12:02:35.113Z,80.14
2023-04-26T12:03:37.222Z,80.00
2023-04-26T12:04:40.394Z,80.93
2023-04-26T12:05:42.670Z,80.04
2023-04-26T12:06:46.307Z,80.86
2023-04-26T12:07:57.111Z,80.80
2023-04-26T12:09:01.810Z,80.64
2023-04-26T12:10:18.166Z,80.25
2023-04-26T12:11:20.191Z,80.19
2023-04-26T12:12:23.188Z,80.59
2023-04-26T12:13:25.373Z,80.11
2023-04-26T12:15:42.561Z,80.22
2023-04-26T12:16:47.206Z,80.79
2023-04-26T12:18:02.198Z,80.75
2023-04-26T12:19:05.818Z,81.15
2023-04-26T12:20:09.726Z,81.74
2023-04-26T12:21:11.603Z,81.69
2023-04-26T12:22:17.200Z,82.35
2023-04-26T12:23:20.290Z,81.52
2023-04-26T12:24:25.806Z,82.08
2023-04-26T12:25:29.117Z,81.91
2023-04-26T12:26:43.781Z,82.99
2023-04-26T12:27:45.665Z,83.12
2023-04-26T12:28:47.517Z,82.58
2023-04-26T12:29:50.344Z,82.97
2023-04-26T12:30:52.673Z,82.94
2023-04-26T12:31:54.626Z,83.14
2023-04-26T12:33:09.209Z,82.91
2023-04-26T12:34:01.952Z,83.72
2023-04-26T12:35:04.738Z,82.93
2023-04-26T12:36:08.971Z,82.73
2023-04-26T12:37:10.971Z,83.64
2023-04-26T12:38:13.208Z,83.57
2023-04-26T12:39:16.321Z,82.78
2023-04-26T12:40:19.829Z,82.16
2023-04-26T12:41:21.826Z,82.98
2023-04-26T12:42:23.667Z,82.83
2023-04-26T12:43:25.554Z,82.96
2023-04-26T12:44:27.428Z,83.14
2023-04-26T12:45:29.529Z,82.47
2023-04-26T12:46:31.754Z,82.47
2023-04-26T12:47:34.733Z,82.06
2023-04-26T12:48:36.708Z,82.69
2023-04-26T12:49:38.814Z,82.26
2023-04-26T12:50:40.752Z,82.99
2023-04-26T12:51:42.630Z,82.89
2023-04-26T12:52:44.985Z,83.15
2023-04-26T12:53:47.130Z,83.16
2023-04-26T12:54:49.493Z,82.68
2023-04-26T12:55:51.366Z,82.32
2023-04-26T12:56:53.421Z,82.31
2023-04-26T12:57:55.380Z,82.45
2023-04-26T12:58:57.467Z,83.36
2023-04-26T12:59:59.750Z,84.39
2023-04-26T13:01:02.024Z,85.28
2023-04-26T13:02:03.945Z,86.09
2023-04-26T13:03:06.021Z,86.86
2023-04-26T13:04:08.358Z,88.47
2023-04-26T13:05:10.542Z,92.68
2023-04-26T13:06:14.036Z,94.44
2023-04-26T13:07:16.076Z,94.57
2023-04-26T13:08:18.075Z,96.18
2023-04-26T13:09:20.053Z,97.36
2023-04-26T13:10:22.369Z,97.10
2023-04-26T13:11:24.395Z,97.71
2023-04-26T13:12:26.984Z,98.50
2023-04-26T13:13:39.894Z,98.43
2023-04-26T13:14:32.645Z,98.34
2023-04-26T13:15:34.573Z,98.42
2023-04-26T13:16:37.153Z,98.12
2023-04-26T13:17:39.153Z,98.34
2023-04-26T13:18:41.683Z,99.92
2023-04-26T13:19:43.622Z,100.00
2023-04-26T13:20:45.594Z,100.00
2023-04-26T13:21:47.636Z,100.00
2023-04-26T13:22:49.577Z,100.00
2023-04-26T13:23:51.619Z,100.00
2023-04-26T13:24:53.475Z,100.00
2023-04-26T13:25:55.368Z,100.00
2023-04-26T13:26:57.346Z,100.00
2023-04-26T13:27:59.230Z,100.00
2023-04-26T13:29:01.252Z,100.00
2023-04-26T13:30:04.175Z,100.00
2023-04-26T13:31:06.102Z,100.00
2023-04-26T13:32:08.092Z,100.00
2023-04-26T13:33:10.062Z,100.00
2023-04-26T13:34:12.042Z,100.00
2023-04-26T13:35:14.116Z,100.00
2023-04-26T13:36:16.935Z,100.00
2023-04-26T13:37:20.561Z,100.00
2023-04-26T13:38:22.688Z,100.00
2023-04-26T13:39:25.874Z,100.00
2023-04-26T13:40:28.069Z,100.00
2023-04-26T13:41:30.857Z,100.00
2023-04-26T13:42:32.846Z,100.00